sensor_id;sensor_type;location;lat;lon;timestamp;pressure;altitude;pressure_sealevel;temperature;humidity
58473;BME280;44775;51.564;5.460;2023-06-22T00:01:47;101599.44;;;19.57;81.11
58473;BME280;44775;51.564;5.460;2023-06-22T00:04:12;101607.56;;;19.50;82.82
58473;BME280;44775;51.564;5.460;2023-06-22T00:06:38;101601.94;;;19.58;80.77
58473;BME280;44775;51.564;5.460;2023-06-22T00:09:03;101602.16;;;19.64;80.62
58473;BME280;44775;51.564;5.460;2023-06-22T00:11:28;101590.06;;;19.46;83.49
58473;BME280;44775;51.564;5.460;2023-06-22T00:13:54;101600.69;;;19.61;82.39
58473;BME280;44775;51.564;5.460;2023-06-22T00:16:19;101604.44;;;19.40;86.27
58473;BME280;44775;51.564;5.460;2023-06-22T00:18:44;101606.53;;;19.18;86.97
58473;BME280;44775;51.564;5.460;2023-06-22T00:21:12;101594.19;;;18.89;90.34
58473;BME280;44775;51.564;5.460;2023-06-22T00:23:38;101595.69;;;19.05;88.07
58473;BME280;44775;51.564;5.460;2023-06-22T00:26:03;101606.69;;;18.77;92.19
58473;BME280;44775;51.564;5.460;2023-06-22T00:28:28;101607.19;;;18.59;93.81
58473;BME280;44775;51.564;5.460;2023-06-22T00:30:54;101596.38;;;18.65;90.53
58473;BME280;44775;51.564;5.460;2023-06-22T00:33:19;101601.59;;;18.60;92.47
58473;BME280;44775;51.564;5.460;2023-06-22T00:35:44;101602.19;;;18.56;93.14
58473;BME280;44775;51.564;5.460;2023-06-22T00:38:10;101598.66;;;18.62;91.44
58473;BME280;44775;51.564;5.460;2023-06-22T00:40:36;101598.59;;;18.42;93.47
58473;BME280;44775;51.564;5.460;2023-06-22T00:43:02;101603.41;;;18.40;95.95
58473;BME280;44775;51.564;5.460;2023-06-22T00:45:27;101594.84;;;18.36;95.82
58473;BME280;44775;51.564;5.460;2023-06-22T00:47:56;101591.75;;;18.46;92.16
58473;BME280;44775;51.564;5.460;2023-06-22T00:50:21;101597.16;;;18.39;91.27
58473;BME280;44775;51.564;5.460;2023-06-22T00:52:57;101599.81;;;18.33;93.36
58473;BME280;44775;51.564;5.460;2023-06-22T00:55:24;101599.19;;;18.31;90.29
58473;BME280;44775;51.564;5.460;2023-06-22T00:57:50;101594.19;;;18.34;92.12
58473;BME280;44775;51.564;5.460;2023-06-22T01:00:16;101596.06;;;18.34;92.05
58473;BME280;44775;51.564;5.460;2023-06-22T01:02:42;101593.53;;;18.26;90.70
58473;BME280;44775;51.564;5.460;2023-06-22T01:05:10;101593.31;;;18.21;91.94
58473;BME280;44775;51.564;5.460;2023-06-22T01:07:37;101582.09;;;18.24;92.28
58473;BME280;44775;51.564;5.460;2023-06-22T01:10:07;101582.13;;;18.30;90.82
58473;BME280;44775;51.564;5.460;2023-06-22T01:12:34;101583.06;;;18.09;93.22
58473;BME280;44775;51.564;5.460;2023-06-22T01:15:04;101583.81;;;17.97;94.19
58473;BME280;44775;51.564;5.460;2023-06-22T01:17:33;101572.75;;;17.91;96.13
58473;BME280;44775;51.564;5.460;2023-06-22T01:19:58;101579.59;;;17.87;94.66
58473;BME280;44775;51.564;5.460;2023-06-22T01:22:26;101576.28;;;17.85;91.93
58473;BME280;44775;51.564;5.460;2023-06-22T01:29:55;101583.94;;;17.82;96.40
58473;BME280;44775;51.564;5.460;2023-06-22T01:32:27;101586.13;;;17.71;94.90
58473;BME280;44775;51.564;5.460;2023-06-22T01:34:53;101582.53;;;17.64;100.00
58473;BME280;44775;51.564;5.460;2023-06-22T01:37:18;101585.19;;;17.58;96.37
58473;BME280;44775;51.564;5.460;2023-06-22T01:39:44;101585.59;;;17.55;99.14
58473;BME280;44775;51.564;5.460;2023-06-22T01:42:10;101595.34;;;17.49;100.00
58473;BME280;44775;51.564;5.460;2023-06-22T01:44:35;101585.31;;;17.43;99.80
58473;BME280;44775;51.564;5.460;2023-06-22T01:47:01;101576.53;;;17.41;99.17
58473;BME280;44775;51.564;5.460;2023-06-22T01:49:27;101573.00;;;17.40;98.31
58473;BME280;44775;51.564;5.460;2023-06-22T01:51:52;101561.88;;;17.50;95.39
58473;BME280;44775;51.564;5.460;2023-06-22T01:54:19;101571.34;;;17.67;94.65
58473;BME280;44775;51.564;5.460;2023-06-22T01:56:44;101572.50;;;17.80;96.40
58473;BME280;44775;51.564;5.460;2023-06-22T01:59:12;101574.38;;;17.79;99.56
58473;BME280;44775;51.564;5.460;2023-06-22T02:02:01;101573.25;;;17.74;96.74
58473;BME280;44775;51.564;5.460;2023-06-22T02:04:26;101575.41;;;17.85;99.54
58473;BME280;44775;51.564;5.460;2023-06-22T02:06:54;101573.16;;;17.88;95.60
58473;BME280;44775;51.564;5.460;2023-06-22T02:09:20;101574.00;;;17.89;95.64
58473;BME280;44775;51.564;5.460;2023-06-22T02:11:47;101576.50;;;17.90;94.94
58473;BME280;44775;51.564;5.460;2023-06-22T02:14:13;101572.56;;;17.93;94.58
58473;BME280;44775;51.564;5.460;2023-06-22T02:16:38;101563.59;;;17.86;96.58
58473;BME280;44775;51.564;5.460;2023-06-22T02:19:03;101568.56;;;17.82;96.99
58473;BME280;44775;51.564;5.460;2023-06-22T02:21:29;101571.44;;;17.81;98.06
58473;BME280;44775;51.564;5.460;2023-06-22T02:23:56;101569.16;;;17.78;99.47
58473;BME280;44775;51.564;5.460;2023-06-22T02:26:21;101564.69;;;17.70;100.00
58473;BME280;44775;51.564;5.460;2023-06-22T02:28:46;101569.22;;;17.63;100.00
58473;BME280;44775;51.564;5.460;2023-06-22T02:31:12;101570.41;;;17.54;99.73
58473;BME280;44775;51.564;5.460;2023-06-22T02:33:37;101566.00;;;17.46;100.00
58473;BME280;44775;51.564;5.460;2023-06-22T02:36:02;101551.00;;;17.43;100.00
58473;BME280;44775;51.564;5.460;2023-06-22T02:38:30;101552.09;;;17.49;98.93
58473;BME280;44775;51.564;5.460;2023-06-22T02:40:58;101544.66;;;17.58;100.00
58473;BME280;44775;51.564;5.460;2023-06-22T02:43:23;101545.31;;;17.60;97.10
58473;BME280;44775;51.564;5.460;2023-06-22T02:45:48;101555.13;;;17.67;98.59
58473;BME280;44775;51.564;5.460;2023-06-22T02:48:13;101550.97;;;17.71;96.97
58473;BME280;44775;51.564;5.460;2023-06-22T02:50:39;101546.88;;;17.76;97.84
58473;BME280;44775;51.564;5.460;2023-06-22T02:53:04;101541.94;;;17.79;98.89
58473;BME280;44775;51.564;5.460;2023-06-22T02:55:29;101545.19;;;17.75;98.98
58473;BME280;44775;51.564;5.460;2023-06-22T02:57:55;101546.00;;;17.68;100.00
58473;BME280;44775;51.564;5.460;2023-06-22T03:00:22;101537.47;;;17.71;100.00
58473;BME280;44775;51.564;5.460;2023-06-22T03:02:47;101543.97;;;17.77;99.65
58473;BME280;44775;51.564;5.460;2023-06-22T03:05:13;101537.75;;;17.77;99.84
58473;BME280;44775;51.564;5.460;2023-06-22T03:07:42;101542.31;;;17.76;98.63
58473;BME280;44775;51.564;5.460;2023-06-22T03:10:10;101526.53;;;17.80;100.00
58473;BME280;44775;51.564;5.460;2023-06-22T03:12:40;101521.34;;;17.85;99.82
58473;BME280;44775;51.564;5.460;2023-06-22T03:15:05;101523.00;;;17.79;99.68
58473;BME280;44775;51.564;5.460;2023-06-22T03:17:31;101522.72;;;17.74;100.00
58473;BME280;44775;51.564;5.460;2023-06-22T03:19:56;101519.75;;;17.62;100.00
58473;BME280;44775;51.564;5.460;2023-06-22T03:22:21;101514.84;;;17.44;100.00
58473;BME280;44775;51.564;5.460;2023-06-22T03:24:46;101513.72;;;17.32;100.00
58473;BME280;44775;51.564;5.460;2023-06-22T03:27:12;101512.69;;;17.33;100.00
58473;BME280;44775;51.564;5.460;2023-06-22T03:29:38;101509.59;;;17.36;100.00
58473;BME280;44775;51.564;5.460;2023-06-22T03:32:03;101508.56;;;17.37;100.00
58473;BME280;44775;51.564;5.460;2023-06-22T03:34:32;101508.78;;;17.36;100.00
58473;BME280;44775;51.564;5.460;2023-06-22T03:37:03;101518.75;;;17.35;100.00
58473;BME280;44775;51.564;5.460;2023-06-22T03:39:29;101511.66;;;17.34;100.00
58473;BME280;44775;51.564;5.460;2023-06-22T03:41:54;101508.44;;;17.45;100.00
58473;BME280;44775;51.564;5.460;2023-06-22T03:44:19;101510.72;;;17.49;100.00
58473;BME280;44775;51.564;5.460;2023-06-22T03:46:44;101506.63;;;17.59;100.00
58473;BME280;44775;51.564;5.460;2023-06-22T03:49:10;101511.03;;;17.67;100.00
58473;BME280;44775;51.564;5.460;2023-06-22T03:51:35;101509.16;;;17.67;100.00
58473;BME280;44775;51.564;5.460;2023-06-22T03:54:00;101510.63;;;17.70;100.00
58473;BME280;44775;51.564;5.460;2023-06-22T03:56:25;101499.00;;;17.69;100.00
58473;BME280;44775;51.564;5.460;2023-06-22T03:58:51;101499.91;;;17.77;100.00
58473;BME280;44775;51.564;5.460;2023-06-22T04:01:16;101496.00;;;17.86;100.00
58473;BME280;44775;51.564;5.460;2023-06-22T04:03:42;101502.00;;;17.81;100.00
58473;BME280;44775;51.564;5.460;2023-06-22T04:06:07;101499.50;;;17.80;100.00
58473;BME280;44775;51.564;5.460;2023-06-22T04:08:32;101503.47;;;17.84;100.00
58473;BME280;44775;51.564;5.460;2023-06-22T04:10:57;101499.19;;;17.68;100.00
58473;BME280;44775;51.564;5.460;2023-06-22T04:13:23;101496.69;;;17.66;100.00
58473;BME280;44775;51.564;5.460;2023-06-22T04:15:48;101495.47;;;17.69;100.00
58473;BME280;44775;51.564;5.460;2023-06-22T04:18:13;101499.00;;;17.69;100.00
58473;BME280;44775;51.564;5.460;2023-06-22T04:20:38;101496.28;;;17.69;100.00
58473;BME280;44775;51.564;5.460;2023-06-22T04:23:03;101494.63;;;17.68;100.00
58473;BME280;44775;51.564;5.460;2023-06-22T04:25:29;101496.28;;;17.69;100.00
58473;BME280;44775;51.564;5.460;2023-06-22T04:27:54;101498.34;;;17.67;100.00
58473;BME280;44775;51.564;5.460;2023-06-22T04:30:19;101504.41;;;17.69;100.00
58473;BME280;44775;51.564;5.460;2023-06-22T04:32:44;101503.78;;;17.74;100.00
58473;BME280;44775;51.564;5.460;2023-06-22T04:35:10;101498.66;;;17.79;100.00
58473;BME280;44775;51.564;5.460;2023-06-22T04:37:35;101497.63;;;17.80;100.00
58473;BME280;44775;51.564;5.460;2023-06-22T04:40:01;101500.16;;;17.88;100.00
58473;BME280;44775;51.564;5.460;2023-06-22T04:42:26;101510.38;;;17.93;100.00
58473;BME280;44775;51.564;5.460;2023-06-22T04:44:51;101512.28;;;17.99;100.00
58473;BME280;44775;51.564;5.460;2023-06-22T04:47:17;101510.03;;;18.09;100.00
58473;BME280;44775;51.564;5.460;2023-06-22T04:49:42;101513.16;;;18.13;100.00
58473;BME280;44775;51.564;5.460;2023-06-22T04:52:08;101513.59;;;18.16;100.00
58473;BME280;44775;51.564;5.460;2023-06-22T04:54:34;101517.59;;;18.27;100.00
58473;BME280;44775;51.564;5.460;2023-06-22T04:57:00;101512.63;;;18.37;100.00
58473;BME280;44775;51.564;5.460;2023-06-22T04:59:27;101507.44;;;18.49;100.00
58473;BME280;44775;51.564;5.460;2023-06-22T05:01:55;101514.97;;;18.60;98.41
58473;BME280;44775;51.564;5.460;2023-06-22T05:04:24;101506.06;;;18.73;98.91
58473;BME280;44775;51.564;5.460;2023-06-22T05:06:50;101512.34;;;18.87;99.19
58473;BME280;44775;51.564;5.460;2023-06-22T05:09:15;101506.94;;;19.00;98.10
58473;BME280;44775;51.564;5.460;2023-06-22T05:11:42;101508.16;;;19.11;97.27
58473;BME280;44775;51.564;5.460;2023-06-22T05:14:07;101500.66;;;19.20;95.60
58473;BME280;44775;51.564;5.460;2023-06-22T05:16:32;101496.50;;;19.30;94.47
58473;BME280;44775;51.564;5.460;2023-06-22T05:18:58;101504.56;;;19.44;96.97
58473;BME280;44775;51.564;5.460;2023-06-22T05:21:23;101500.59;;;19.59;96.08
58473;BME280;44775;51.564;5.460;2023-06-22T05:23:49;101501.63;;;19.58;95.04
58473;BME280;44775;51.564;5.460;2023-06-22T05:26:14;101512.69;;;19.64;92.91
58473;BME280;44775;51.564;5.460;2023-06-22T05:28:40;101510.19;;;19.69;95.08
58473;BME280;44775;51.564;5.460;2023-06-22T05:31:05;101513.50;;;19.71;94.60
58473;BME280;44775;51.564;5.460;2023-06-22T05:33:30;101516.84;;;19.73;92.52
58473;BME280;44775;51.564;5.460;2023-06-22T05:35:56;101515.59;;;19.75;95.11
58473;BME280;44775;51.564;5.460;2023-06-22T05:38:21;101506.16;;;19.91;94.96
58473;BME280;44775;51.564;5.460;2023-06-22T05:40:46;101498.47;;;19.88;94.79
58473;BME280;44775;51.564;5.460;2023-06-22T05:43:11;101499.31;;;19.82;94.22
58473;BME280;44775;51.564;5.460;2023-06-22T05:45:36;101502.03;;;19.82;94.98
58473;BME280;44775;51.564;5.460;2023-06-22T05:48:02;101487.22;;;19.78;95.67
58473;BME280;44775;51.564;5.460;2023-06-22T05:50:27;101493.25;;;19.80;96.91
58473;BME280;44775;51.564;5.460;2023-06-22T05:52:52;101492.81;;;19.83;93.93
58473;BME280;44775;51.564;5.460;2023-06-22T05:55:17;101501.34;;;19.93;94.86
58473;BME280;44775;51.564;5.460;2023-06-22T05:57:43;101510.09;;;20.02;93.83
58473;BME280;44775;51.564;5.460;2023-06-22T06:00:09;101512.50;;;20.17;94.36
58473;BME280;44775;51.564;5.460;2023-06-22T06:02:36;101506.19;;;20.29;91.40
58473;BME280;44775;51.564;5.460;2023-06-22T06:05:01;101507.09;;;20.48;92.96
58473;BME280;44775;51.564;5.460;2023-06-22T06:07:28;101499.31;;;20.65;91.86
58473;BME280;44775;51.564;5.460;2023-06-22T06:09:53;101499.34;;;20.90;90.77
58473;BME280;44775;51.564;5.460;2023-06-22T06:12:18;101506.00;;;20.94;90.24
58473;BME280;44775;51.564;5.460;2023-06-22T06:14:44;101500.06;;;21.04;88.42
58473;BME280;44775;51.564;5.460;2023-06-22T06:17:09;101495.97;;;21.20;88.86
58473;BME280;44775;51.564;5.460;2023-06-22T06:19:34;101495.44;;;21.30;87.64
58473;BME280;44775;51.564;5.460;2023-06-22T06:21:59;101493.59;;;21.49;87.90
58473;BME280;44775;51.564;5.460;2023-06-22T06:24:26;101496.25;;;21.55;87.19
58473;BME280;44775;51.564;5.460;2023-06-22T06:26:52;101498.81;;;21.68;86.70
58473;BME280;44775;51.564;5.460;2023-06-22T06:29:17;101500.41;;;21.76;84.04
58473;BME280;44775;51.564;5.460;2023-06-22T06:31:43;101500.88;;;21.91;84.83
58473;BME280;44775;51.564;5.460;2023-06-22T06:34:08;101508.41;;;22.08;83.47
58473;BME280;44775;51.564;5.460;2023-06-22T06:36:33;101507.31;;;22.27;83.52
58473;BME280;44775;51.564;5.460;2023-06-22T06:38:58;101513.00;;;22.56;83.31
58473;BME280;44775;51.564;5.460;2023-06-22T06:41:23;101500.19;;;22.45;79.31
58473;BME280;44775;51.564;5.460;2023-06-22T06:43:49;101497.00;;;22.48;83.00
58473;BME280;44775;51.564;5.460;2023-06-22T06:46:14;101497.94;;;22.42;82.13
58473;BME280;44775;51.564;5.460;2023-06-22T06:48:39;101497.00;;;22.48;82.38
58473;BME280;44775;51.564;5.460;2023-06-22T06:51:05;101496.53;;;22.51;81.84
58473;BME280;44775;51.564;5.460;2023-06-22T06:53:30;101508.88;;;22.95;80.08
58473;BME280;44775;51.564;5.460;2023-06-22T06:55:56;101503.97;;;22.85;80.70
58473;BME280;44775;51.564;5.460;2023-06-22T06:58:21;101504.28;;;22.66;78.61
58473;BME280;44775;51.564;5.460;2023-06-22T07:00:48;101508.09;;;22.76;79.86
58473;BME280;44775;51.564;5.460;2023-06-22T07:03:13;101500.63;;;22.83;77.79
58473;BME280;44775;51.564;5.460;2023-06-22T07:05:39;101505.44;;;23.00;78.47
58473;BME280;44775;51.564;5.460;2023-06-22T07:08:04;101504.03;;;23.09;74.68
58473;BME280;44775;51.564;5.460;2023-06-22T07:10:29;101496.66;;;23.21;76.75
58473;BME280;44775;51.564;5.460;2023-06-22T07:12:54;101498.81;;;23.43;76.75
58473;BME280;44775;51.564;5.460;2023-06-22T07:15:19;101497.50;;;23.33;78.21
58473;BME280;44775;51.564;5.460;2023-06-22T07:17:45;101490.50;;;23.38;76.79
58473;BME280;44775;51.564;5.460;2023-06-22T07:20:10;101487.09;;;23.42;75.85
58473;BME280;44775;51.564;5.460;2023-06-22T07:22:41;101492.25;;;23.55;75.30
58473;BME280;44775;51.564;5.460;2023-06-22T07:25:07;101488.00;;;23.60;75.51
58473;BME280;44775;51.564;5.460;2023-06-22T07:27:36;101488.13;;;23.53;74.12
58473;BME280;44775;51.564;5.460;2023-06-22T07:30:03;101485.88;;;23.73;74.29
58473;BME280;44775;51.564;5.460;2023-06-22T07:32:28;101492.03;;;23.57;71.22
58473;BME280;44775;51.564;5.460;2023-06-22T07:34:53;101490.03;;;23.41;75.48
58473;BME280;44775;51.564;5.460;2023-06-22T07:37:19;101484.47;;;23.24;71.99
58473;BME280;44775;51.564;5.460;2023-06-22T07:39:44;101482.59;;;23.13;73.29
58473;BME280;44775;51.564;5.460;2023-06-22T07:42:09;101488.00;;;23.01;68.76
58473;BME280;44775;51.564;5.460;2023-06-22T07:44:35;101482.66;;;22.94;70.40
58473;BME280;44775;51.564;5.460;2023-06-22T07:47:00;101467.03;;;23.01;74.10
58473;BME280;44775;51.564;5.460;2023-06-22T07:49:25;101469.84;;;22.83;74.26
58473;BME280;44775;51.564;5.460;2023-06-22T07:51:50;101465.22;;;22.72;76.16
58473;BME280;44775;51.564;5.460;2023-06-22T07:54:15;101456.13;;;22.36;76.46
58473;BME280;44775;51.564;5.460;2023-06-22T07:56:42;101452.59;;;22.17;78.47
58473;BME280;44775;51.564;5.460;2023-06-22T07:59:08;101446.41;;;22.10;77.57
58473;BME280;44775;51.564;5.460;2023-06-22T08:01:33;101439.59;;;22.19;80.09
58473;BME280;44775;51.564;5.460;2023-06-22T08:03:58;101439.75;;;22.06;81.03
58473;BME280;44775;51.564;5.460;2023-06-22T08:06:23;101434.31;;;22.06;81.15
58473;BME280;44775;51.564;5.460;2023-06-22T08:08:49;101423.78;;;22.09;80.51
58473;BME280;44775;51.564;5.460;2023-06-22T08:11:14;101416.28;;;22.23;73.91
58473;BME280;44775;51.564;5.460;2023-06-22T08:13:39;101411.06;;;22.52;77.75
58473;BME280;44775;51.564;5.460;2023-06-22T08:16:04;101398.97;;;22.71;77.50
58473;BME280;44775;51.564;5.460;2023-06-22T08:18:29;101393.53;;;22.83;66.48
58473;BME280;44775;51.564;5.460;2023-06-22T08:20:55;101402.09;;;23.10;76.74
58473;BME280;44775;51.564;5.460;2023-06-22T08:23:20;101396.38;;;23.12;74.50
58473;BME280;44775;51.564;5.460;2023-06-22T08:25:45;101388.00;;;23.13;75.67
58473;BME280;44775;51.564;5.460;2023-06-22T08:28:10;101394.00;;;23.15;62.92
58473;BME280;44775;51.564;5.460;2023-06-22T08:30:36;101388.91;;;23.30;71.93
58473;BME280;44775;51.564;5.460;2023-06-22T08:33:01;101394.78;;;23.51;72.51
58473;BME280;44775;51.564;5.460;2023-06-22T08:35:26;101396.75;;;23.67;67.98
58473;BME280;44775;51.564;5.460;2023-06-22T08:37:52;101398.31;;;23.63;69.26
58473;BME280;44775;51.564;5.460;2023-06-22T08:40:19;101393.91;;;23.62;69.65
58473;BME280;44775;51.564;5.460;2023-06-22T08:42:45;101394.75;;;23.63;64.07
58473;BME280;44775;51.564;5.460;2023-06-22T08:45:10;101396.72;;;23.79;68.97
58473;BME280;44775;51.564;5.460;2023-06-22T08:47:36;101401.28;;;23.73;66.70
58473;BME280;44775;51.564;5.460;2023-06-22T08:50:01;101394.84;;;23.79;67.97
58473;BME280;44775;51.564;5.460;2023-06-22T08:52:29;101391.72;;;23.88;67.03
58473;BME280;44775;51.564;5.460;2023-06-22T08:54:54;101396.34;;;23.87;62.61
58473;BME280;44775;51.564;5.460;2023-06-22T08:57:20;101397.19;;;23.88;60.37
58473;BME280;44775;51.564;5.460;2023-06-22T08:59:45;101394.00;;;23.79;64.29
58473;BME280;44775;51.564;5.460;2023-06-22T09:02:11;101392.13;;;23.79;57.01
58473;BME280;44775;51.564;5.460;2023-06-22T09:04:36;101387.38;;;23.75;64.37
58473;BME280;44775;51.564;5.460;2023-06-22T09:07:01;101384.91;;;23.73;64.28
58473;BME280;44775;51.564;5.460;2023-06-22T09:09:27;101380.94;;;23.81;63.24
58473;BME280;44775;51.564;5.460;2023-06-22T09:11:52;101379.31;;;23.80;63.73
58473;BME280;44775;51.564;5.460;2023-06-22T09:14:17;101377.66;;;23.96;62.43
58473;BME280;44775;51.564;5.460;2023-06-22T09:16:42;101379.25;;;23.92;63.49
58473;BME280;44775;51.564;5.460;2023-06-22T09:19:08;101376.69;;;24.02;57.14
58473;BME280;44775;51.564;5.460;2023-06-22T09:21:33;101374.41;;;24.11;61.91
58473;BME280;44775;51.564;5.460;2023-06-22T09:23:58;101372.31;;;24.01;62.90
58473;BME280;44775;51.564;5.460;2023-06-22T09:26:23;101367.28;;;23.93;56.10
58473;BME280;44775;51.564;5.460;2023-06-22T09:28:49;101371.06;;;23.92;57.20
58473;BME280;44775;51.564;5.460;2023-06-22T09:31:14;101365.38;;;23.93;56.83
58473;BME280;44775;51.564;5.460;2023-06-22T09:33:41;101372.72;;;23.93;59.17
58473;BME280;44775;51.564;5.460;2023-06-22T09:36:07;101375.88;;;24.01;60.20
58473;BME280;44775;51.564;5.460;2023-06-22T09:38:38;101377.63;;;23.79;61.96
58473;BME280;44775;51.564;5.460;2023-06-22T09:41:03;101372.81;;;23.69;57.92
58473;BME280;44775;51.564;5.460;2023-06-22T09:43:29;101366.50;;;23.69;60.56
58473;BME280;44775;51.564;5.460;2023-06-22T09:45:54;101368.66;;;23.67;58.68
58473;BME280;44775;51.564;5.460;2023-06-22T09:48:20;101372.81;;;23.69;60.50
58473;BME280;44775;51.564;5.460;2023-06-22T09:50:45;101368.53;;;23.73;61.58
58473;BME280;44775;51.564;5.460;2023-06-22T09:53:10;101362.81;;;23.75;59.26
58473;BME280;44775;51.564;5.460;2023-06-22T09:55:35;101354.28;;;23.71;60.47
58473;BME280;44775;51.564;5.460;2023-06-22T09:58:00;101353.47;;;23.71;58.94
58473;BME280;44775;51.564;5.460;2023-06-22T10:00:26;101351.81;;;23.58;59.37
58473;BME280;44775;51.564;5.460;2023-06-22T10:02:54;101353.72;;;23.57;61.38
58473;BME280;44775;51.564;5.460;2023-06-22T10:05:20;101352.28;;;23.67;62.08
58473;BME280;44775;51.564;5.460;2023-06-22T10:07:46;101354.31;;;23.60;61.21
58473;BME280;44775;51.564;5.460;2023-06-22T10:10:11;101355.16;;;23.60;61.64
58473;BME280;44775;51.564;5.460;2023-06-22T10:12:40;101357.63;;;23.73;62.81
58473;BME280;44775;51.564;5.460;2023-06-22T10:15:06;101365.03;;;23.90;63.03
58473;BME280;44775;51.564;5.460;2023-06-22T10:17:31;101363.06;;;23.73;62.65
58473;BME280;44775;51.564;5.460;2023-06-22T10:19:56;101353.81;;;23.74;63.40
58473;BME280;44775;51.564;5.460;2023-06-22T10:22:22;101355.94;;;23.72;63.87
58473;BME280;44775;51.564;5.460;2023-06-22T10:24:47;101351.19;;;23.79;62.85
58473;BME280;44775;51.564;5.460;2023-06-22T10:27:12;101350.19;;;23.86;62.22
58473;BME280;44775;51.564;5.460;2023-06-22T10:29:38;101349.47;;;23.90;63.37
58473;BME280;44775;51.564;5.460;2023-06-22T10:32:03;101357.03;;;24.00;63.24
58473;BME280;44775;51.564;5.460;2023-06-22T10:34:29;101343.22;;;24.07;61.61
58473;BME280;44775;51.564;5.460;2023-06-22T10:36:54;101351.47;;;24.12;62.50
58473;BME280;44775;51.564;5.460;2023-06-22T10:39:19;101354.63;;;24.03;63.12
58473;BME280;44775;51.564;5.460;2023-06-22T10:41:44;101354.22;;;24.12;64.32
58473;BME280;44775;51.564;5.460;2023-06-22T10:44:10;101362.56;;;24.22;62.46
58473;BME280;44775;51.564;5.460;2023-06-22T10:46:35;101364.75;;;24.20;63.18
58473;BME280;44775;51.564;5.460;2023-06-22T10:49:01;101376.97;;;24.17;64.03
58473;BME280;44775;51.564;5.460;2023-06-22T10:51:26;101379.72;;;24.17;63.77
58473;BME280;44775;51.564;5.460;2023-06-22T10:53:53;101386.91;;;24.07;65.24
58473;BME280;44775;51.564;5.460;2023-06-22T10:56:18;101387.44;;;23.92;66.89
58473;BME280;44775;51.564;5.460;2023-06-22T10:58:44;101387.50;;;23.80;70.17
58473;BME280;44775;51.564;5.460;2023-06-22T11:01:09;101390.63;;;23.60;68.20
58473;BME280;44775;51.564;5.460;2023-06-22T11:03:34;101391.63;;;23.42;73.54
58473;BME280;44775;51.564;5.460;2023-06-22T11:06:00;101388.94;;;23.19;70.93
58473;BME280;44775;51.564;5.460;2023-06-22T11:08:25;101391.53;;;22.90;75.82
58473;BME280;44775;51.564;5.460;2023-06-22T11:10:51;101372.22;;;22.68;84.49
58473;BME280;44775;51.564;5.460;2023-06-22T11:13:16;101383.47;;;22.48;78.19
58473;BME280;44775;51.564;5.460;2023-06-22T11:15:41;101392.16;;;22.27;77.22
58473;BME280;44775;51.564;5.460;2023-06-22T11:18:06;101395.50;;;22.10;78.83
58473;BME280;44775;51.564;5.460;2023-06-22T11:20:32;101406.97;;;22.01;81.56
58473;BME280;44775;51.564;5.460;2023-06-22T11:22:59;101405.38;;;21.93;81.10
58473;BME280;44775;51.564;5.460;2023-06-22T11:25:25;101402.34;;;21.71;91.63
58473;BME280;44775;51.564;5.460;2023-06-22T11:27:50;101395.56;;;21.62;88.09
58473;BME280;44775;51.564;5.460;2023-06-22T11:30:18;101381.25;;;21.36;83.09
58473;BME280;44775;51.564;5.460;2023-06-22T11:32:43;101387.72;;;21.35;84.03
58473;BME280;44775;51.564;5.460;2023-06-22T11:35:08;101393.69;;;21.44;91.09
58473;BME280;44775;51.564;5.460;2023-06-22T11:37:33;101407.47;;;21.24;97.59
58473;BME280;44775;51.564;5.460;2023-06-22T11:39:59;101394.59;;;20.94;97.18
58473;BME280;44775;51.564;5.460;2023-06-22T11:42:24;101397.31;;;20.94;95.08
58473;BME280;44775;51.564;5.460;2023-06-22T11:44:50;101392.19;;;20.61;94.09
58473;BME280;44775;51.564;5.460;2023-06-22T11:47:15;101396.63;;;20.56;90.54
58473;BME280;44775;51.564;5.460;2023-06-22T11:49:41;101392.81;;;20.63;95.09
58473;BME280;44775;51.564;5.460;2023-06-22T11:52:06;101383.28;;;20.47;90.22
58473;BME280;44775;51.564;5.460;2023-06-22T11:54:31;101384.56;;;20.45;87.98
58473;BME280;44775;51.564;5.460;2023-06-22T11:56:56;101381.00;;;20.44;87.65
58473;BME280;44775;51.564;5.460;2023-06-22T11:59:21;101361.56;;;20.47;91.40
58473;BME280;44775;51.564;5.460;2023-06-22T12:01:47;101349.06;;;20.46;89.18
58473;BME280;44775;51.564;5.460;2023-06-22T12:04:12;101338.63;;;20.43;90.10
58473;BME280;44775;51.564;5.460;2023-06-22T12:06:38;101345.72;;;20.44;94.39
58473;BME280;44775;51.564;5.460;2023-06-22T12:09:03;101338.00;;;20.41;90.34
58473;BME280;44775;51.564;5.460;2023-06-22T12:11:29;101335.25;;;20.48;90.47
58473;BME280;44775;51.564;5.460;2023-06-22T12:13:55;101329.78;;;20.55;93.35
58473;BME280;44775;51.564;5.460;2023-06-22T12:16:20;101319.38;;;20.51;93.55
58473;BME280;44775;51.564;5.460;2023-06-22T12:18:46;101315.38;;;20.54;96.59
58473;BME280;44775;51.564;5.460;2023-06-22T12:21:12;101311.84;;;20.54;100.00
58473;BME280;44775;51.564;5.460;2023-06-22T12:23:37;101309.22;;;20.40;94.66
58473;BME280;44775;51.564;5.460;2023-06-22T12:26:02;101311.44;;;20.50;96.93
58473;BME280;44775;51.564;5.460;2023-06-22T12:28:27;101304.09;;;20.57;99.54
58473;BME280;44775;51.564;5.460;2023-06-22T12:30:53;101302.97;;;20.40;90.66
58473;BME280;44775;51.564;5.460;2023-06-22T12:33:18;101313.59;;;20.41;94.11
58473;BME280;44775;51.564;5.460;2023-06-22T12:35:43;101307.72;;;20.44;95.66
58473;BME280;44775;51.564;5.460;2023-06-22T12:38:10;101316.59;;;20.33;94.97
58473;BME280;44775;51.564;5.460;2023-06-22T12:40:35;101311.63;;;20.48;98.80
58473;BME280;44775;51.564;5.460;2023-06-22T12:43:00;101309.00;;;20.42;98.45
58473;BME280;44775;51.564;5.460;2023-06-22T12:45:27;101307.69;;;20.26;99.00